sensor_id;sensor_type;location;lat;lon;timestamp;pressure;altitude;pressure_sealevel;temperature;humidity
8069;BME280;4077;43.702;24.896;2022-12-10T00:01:26;98771.94;;;5.95;100.00
8069;BME280;4077;43.702;24.896;2022-12-10T00:03:52;98771.16;;;5.97;100.00
8069;BME280;4077;43.702;24.896;2022-12-10T00:06:20;98780.63;;;6.03;100.00
8069;BME280;4077;43.702;24.896;2022-12-10T00:08:46;98781.41;;;5.97;100.00
8069;BME280;4077;43.702;24.896;2022-12-10T00:11:13;98789.84;;;5.93;100.00
8069;BME280;4077;43.702;24.896;2022-12-10T00:13:39;98781.34;;;5.96;100.00
8069;BME280;4077;43.702;24.896;2022-12-10T00:16:07;98790.09;;;6.06;100.00
8069;BME280;4077;43.702;24.896;2022-12-10T00:18:35;98789.16;;;6.02;100.00
8069;BME280;4077;43.702;24.896;2022-12-10T00:21:11;98772.16;;;6.06;100.00
8069;BME280;4077;43.702;24.896;2022-12-10T00:23:38;98783.06;;;5.97;100.00
8069;BME280;4077;43.702;24.896;2022-12-10T00:26:16;98790.88;;;6.03;100.00
8069;BME280;4077;43.702;24.896;2022-12-10T00:28:42;98781.94;;;5.83;100.00
8069;BME280;4077;43.702;24.896;2022-12-10T00:31:14;98776.31;;;5.99;100.00
8069;BME280;4077;43.702;24.896;2022-12-10T00:33:40;98781.13;;;5.85;100.00
8069;BME280;4077;43.702;24.896;2022-12-10T00:36:10;98767.41;;;5.83;100.00
8069;BME280;4077;43.702;24.896;2022-12-10T00:38:36;98766.22;;;5.64;100.00
8069;BME280;4077;43.702;24.896;2022-12-10T00:41:02;98757.00;;;5.74;100.00
8069;BME280;4077;43.702;24.896;2022-12-10T00:43:28;98766.47;;;5.76;100.00
8069;BME280;4077;43.702;24.896;2022-12-10T00:45:54;98768.13;;;5.76;100.00
8069;BME280;4077;43.702;24.896;2022-12-10T00:48:20;98772.50;;;5.80;100.00
8069;BME280;4077;43.702;24.896;2022-12-10T00:51:14;98766.69;;;5.89;100.00
8069;BME280;4077;43.702;24.896;2022-12-10T00:53:41;98779.59;;;5.93;100.00
8069;BME280;4077;43.702;24.896;2022-12-10T00:56:12;98778.03;;;6.01;100.00
8069;BME280;4077;43.702;24.896;2022-12-10T00:58:38;98769.22;;;5.87;100.00
8069;BME280;4077;43.702;24.896;2022-12-10T01:03:40;98770.19;;;5.92;100.00
8069;BME280;4077;43.702;24.896;2022-12-10T01:06:18;98776.16;;;5.91;100.00
8069;BME280;4077;43.702;24.896;2022-12-10T01:08:44;98771.72;;;5.84;100.00
8069;BME280;4077;43.702;24.896;2022-12-10T01:11:11;98764.84;;;5.83;100.00
8069;BME280;4077;43.702;24.896;2022-12-10T01:13:37;98757.44;;;5.95;100.00
8069;BME280;4077;43.702;24.896;2022-12-10T01:16:04;98749.72;;;5.92;100.00
8069;BME280;4077;43.702;24.896;2022-12-10T01:18:30;98742.88;;;5.93;100.00
8069;BME280;4077;43.702;24.896;2022-12-10T01:21:03;98740.56;;;6.05;100.00
8069;BME280;4077;43.702;24.896;2022-12-10T01:23:31;98728.53;;;6.02;100.00
8069;BME280;4077;43.702;24.896;2022-12-10T01:26:00;98745.81;;;6.13;100.00
8069;BME280;4077;43.702;24.896;2022-12-10T01:28:25;98747.41;;;6.08;100.00
8069;BME280;4077;43.702;24.896;2022-12-10T01:30:50;98747.44;;;6.11;100.00
8069;BME280;4077;43.702;24.896;2022-12-10T01:33:16;98746.53;;;6.06;100.00
8069;BME280;4077;43.702;24.896;2022-12-10T01:35:41;98741.41;;;6.04;100.00
8069;BME280;4077;43.702;24.896;2022-12-10T01:38:06;98744.84;;;6.08;100.00
8069;BME280;4077;43.702;24.896;2022-12-10T01:40:37;98756.94;;;6.15;100.00
8069;BME280;4077;43.702;24.896;2022-12-10T01:43:04;98760.22;;;6.08;100.00
8069;BME280;4077;43.702;24.896;2022-12-10T01:45:29;98758.53;;;6.10;100.00
8069;BME280;4077;43.702;24.896;2022-12-10T01:47:55;98755.88;;;6.03;100.00
8069;BME280;4077;43.702;24.896;2022-12-10T01:50:20;98755.00;;;6.03;100.00
8069;BME280;4077;43.702;24.896;2022-12-10T01:52:46;98734.47;;;6.00;100.00
8069;BME280;4077;43.702;24.896;2022-12-10T01:55:42;98757.16;;;6.27;100.00
8069;BME280;4077;43.702;24.896;2022-12-10T01:58:10;98761.38;;;6.25;100.00
8069;BME280;4077;43.702;24.896;2022-12-10T02:00:40;98756.34;;;6.31;100.00
8069;BME280;4077;43.702;24.896;2022-12-10T02:03:19;98757.03;;;6.19;100.00
8069;BME280;4077;43.702;24.896;2022-12-10T02:06:03;98745.72;;;6.10;100.00
8069;BME280;4077;43.702;24.896;2022-12-10T02:08:39;98743.25;;;6.13;100.00
8069;BME280;4077;43.702;24.896;2022-12-10T02:11:19;98749.44;;;6.25;100.00
8069;BME280;4077;43.702;24.896;2022-12-10T02:14:01;98736.53;;;6.19;100.00
8069;BME280;4077;43.702;24.896;2022-12-10T02:16:37;98728.81;;;6.18;100.00
8069;BME280;4077;43.702;24.896;2022-12-10T02:21:38;98728.81;;;6.18;100.00
8069;BME280;4077;43.702;24.896;2022-12-10T02:24:09;98709.06;;;6.12;100.00
8069;BME280;4077;43.702;24.896;2022-12-10T02:29:24;98729.00;;;6.30;100.00
8069;BME280;4077;43.702;24.896;2022-12-10T02:32:15;98733.34;;;6.34;100.00
8069;BME280;4077;43.702;24.896;2022-12-10T02:34:54;98728.19;;;6.33;100.00
8069;BME280;4077;43.702;24.896;2022-12-10T02:37:29;98722.22;;;6.32;100.00
8069;BME280;4077;43.702;24.896;2022-12-10T02:39:59;98719.59;;;6.30;100.00
8069;BME280;4077;43.702;24.896;2022-12-10T02:42:29;98715.22;;;6.23;100.00
8069;BME280;4077;43.702;24.896;2022-12-10T02:44:56;98717.84;;;6.26;100.00
8069;BME280;4077;43.702;24.896;2022-12-10T02:47:23;98711.97;;;6.32;100.00
8069;BME280;4077;43.702;24.896;2022-12-10T02:49:53;98705.09;;;6.31;100.00
8069;BME280;4077;43.702;24.896;2022-12-10T02:52:20;98713.59;;;6.27;100.00
8069;BME280;4077;43.702;24.896;2022-12-10T02:54:48;98713.59;;;6.27;100.00
8069;BME280;4077;43.702;24.896;2022-12-10T03:07:41;98687.13;;;6.29;100.00
8069;BME280;4077;43.702;24.896;2022-12-10T03:13:00;98684.47;;;6.23;100.00
8069;BME280;4077;43.702;24.896;2022-12-10T03:15:32;98680.19;;;6.24;100.00
8069;BME280;4077;43.702;24.896;2022-12-10T03:18:02;98680.25;;;6.27;100.00
8069;BME280;4077;43.702;24.896;2022-12-10T03:20:30;98690.56;;;6.30;100.00
8069;BME280;4077;43.702;24.896;2022-12-10T03:22:56;98691.34;;;6.26;100.00
8069;BME280;4077;43.702;24.896;2022-12-10T03:25:24;98690.63;;;6.35;100.00
8069;BME280;4077;43.702;24.896;2022-12-10T03:27:54;98700.03;;;6.34;100.00
8069;BME280;4077;43.702;24.896;2022-12-10T03:30:22;98692.97;;;6.21;100.00
8069;BME280;4077;43.702;24.896;2022-12-10T03:32:48;98698.09;;;6.21;100.00
8069;BME280;4077;43.702;24.896;2022-12-10T03:35:14;98697.03;;;6.08;100.00
8069;BME280;4077;43.702;24.896;2022-12-10T03:37:41;98697.69;;;5.96;100.00
8069;BME280;4077;43.702;24.896;2022-12-10T03:40:08;98694.38;;;6.03;100.00
8069;BME280;4077;43.702;24.896;2022-12-10T03:42:36;98690.94;;;6.01;100.00
8069;BME280;4077;43.702;24.896;2022-12-10T03:45:02;98679.00;;;6.00;100.00
8069;BME280;4077;43.702;24.896;2022-12-10T03:47:28;98686.72;;;6.03;100.00
8069;BME280;4077;43.702;24.896;2022-12-10T03:49:53;98687.66;;;6.09;100.00
8069;BME280;4077;43.702;24.896;2022-12-10T03:52:18;98677.50;;;6.15;100.00
8069;BME280;4077;43.702;24.896;2022-12-10T03:54:44;98675.03;;;6.19;100.00
8069;BME280;4077;43.702;24.896;2022-12-10T03:57:09;98649.09;;;6.01;100.00
8069;BME280;4077;43.702;24.896;2022-12-10T03:59:35;98671.53;;;6.14;100.00
8069;BME280;4077;43.702;24.896;2022-12-10T04:02:00;98678.34;;;6.14;100.00
8069;BME280;4077;43.702;24.896;2022-12-10T04:04:26;98671.63;;;6.22;100.00
8069;BME280;4077;43.702;24.896;2022-12-10T04:06:51;98675.22;;;6.32;100.00
8069;BME280;4077;43.702;24.896;2022-12-10T04:09:16;98687.22;;;6.36;100.00
8069;BME280;4077;43.702;24.896;2022-12-10T04:11:43;98674.53;;;6.43;100.00
8069;BME280;4077;43.702;24.896;2022-12-10T04:14:10;98668.53;;;6.43;100.00
8069;BME280;4077;43.702;24.896;2022-12-10T04:16:54;98648.84;;;6.39;100.00
8069;BME280;4077;43.702;24.896;2022-12-10T04:19:20;98667.75;;;6.45;100.00
8069;BME280;4077;43.702;24.896;2022-12-10T04:21:46;98659.13;;;6.40;100.00
8069;BME280;4077;43.702;24.896;2022-12-10T04:24:32;98682.47;;;6.60;100.00
8069;BME280;4077;43.702;24.896;2022-12-10T04:27:21;98684.88;;;6.51;100.00
8069;BME280;4077;43.702;24.896;2022-12-10T04:29:47;98678.06;;;6.51;100.00
8069;BME280;4077;43.702;24.896;2022-12-10T04:32:13;98689.97;;;6.46;100.00
8069;BME280;4077;43.702;24.896;2022-12-10T04:34:39;98684.78;;;6.43;100.00
8069;BME280;4077;43.702;24.896;2022-12-10T04:37:04;98689.97;;;6.46;100.00
8069;BME280;4077;43.702;24.896;2022-12-10T04:39:30;98695.13;;;6.51;100.00
8069;BME280;4077;43.702;24.896;2022-12-10T04:41:56;98684.03;;;6.50;100.00
8069;BME280;4077;43.702;24.896;2022-12-10T04:44:21;98677.00;;;6.37;100.00
8069;BME280;4077;43.702;24.896;2022-12-10T04:46:48;98672.03;;;6.48;100.00
8069;BME280;4077;43.702;24.896;2022-12-10T04:49:13;98678.13;;;6.56;100.00
8069;BME280;4077;43.702;24.896;2022-12-10T04:51:40;98673.00;;;6.57;100.00
8069;BME280;4077;43.702;24.896;2022-12-10T04:54:06;98673.66;;;6.43;100.00
8069;BME280;4077;43.702;24.896;2022-12-10T04:56:32;98666.81;;;6.40;100.00
8069;BME280;4077;43.702;24.896;2022-12-10T04:58:58;98683.19;;;6.51;100.00
8069;BME280;4077;43.702;24.896;2022-12-10T05:01:24;98665.84;;;6.35;100.00
8069;BME280;4077;43.702;24.896;2022-12-10T05:03:49;98684.88;;;6.49;100.00
8069;BME280;4077;43.702;24.896;2022-12-10T05:06:16;98684.88;;;6.49;100.00
8069;BME280;4077;43.702;24.896;2022-12-10T05:08:42;98688.25;;;6.45;100.00
8069;BME280;4077;43.702;24.896;2022-12-10T05:11:17;98696.94;;;6.56;100.00
8069;BME280;4077;43.702;24.896;2022-12-10T05:13:43;98700.31;;;6.52;100.00
8069;BME280;4077;43.702;24.896;2022-12-10T05:16:11;98692.72;;;6.60;100.00
8069;BME280;4077;43.702;24.896;2022-12-10T05:18:37;98690.13;;;6.58;100.00
8069;BME280;4077;43.702;24.896;2022-12-10T05:21:05;98690.19;;;6.63;100.00
8069;BME280;4077;43.702;24.896;2022-12-10T05:23:31;98692.66;;;6.55;100.00
8069;BME280;4077;43.702;24.896;2022-12-10T05:26:21;98679.84;;;6.58;100.00
8069;BME280;4077;43.702;24.896;2022-12-10T05:28:56;98677.19;;;6.51;100.00
8069;BME280;4077;43.702;24.896;2022-12-10T05:31:23;98678.03;;;6.50;100.00
8069;BME280;4077;43.702;24.896;2022-12-10T05:33:49;98676.34;;;6.50;100.00
8069;BME280;4077;43.702;24.896;2022-12-10T05:36:18;98682.50;;;6.65;100.00
8069;BME280;4077;43.702;24.896;2022-12-10T05:38:44;98680.00;;;6.68;100.00
8069;BME280;4077;43.702;24.896;2022-12-10T05:41:19;98678.41;;;6.76;100.00
8069;BME280;4077;43.702;24.896;2022-12-10T05:43:45;98673.13;;;6.65;100.00
8069;BME280;4077;43.702;24.896;2022-12-10T05:46:12;98673.19;;;6.70;100.00
8069;BME280;4077;43.702;24.896;2022-12-10T05:48:38;98669.75;;;6.68;100.00
8069;BME280;4077;43.702;24.896;2022-12-10T05:51:05;98661.31;;;6.78;100.00
8069;BME280;4077;43.702;24.896;2022-12-10T05:53:31;98651.72;;;6.63;100.00
8069;BME280;4077;43.702;24.896;2022-12-10T05:56:02;98663.84;;;6.73;100.00
8069;BME280;4077;43.702;24.896;2022-12-10T05:58:28;98657.00;;;6.74;100.00
8069;BME280;4077;43.702;24.896;2022-12-10T06:00:57;98657.88;;;6.76;100.00
8069;BME280;4077;43.702;24.896;2022-12-10T06:03:23;98671.66;;;6.82;100.00
8069;BME280;4077;43.702;24.896;2022-12-10T06:05:48;98670.75;;;6.79;100.00
8069;BME280;4077;43.702;24.896;2022-12-10T06:08:14;98675.91;;;6.80;100.00
8069;BME280;4077;43.702;24.896;2022-12-10T06:10:39;98681.13;;;6.87;100.00
8069;BME280;4077;43.702;24.896;2022-12-10T06:13:05;98688.91;;;6.94;100.00
8069;BME280;4077;43.702;24.896;2022-12-10T06:15:31;98680.38;;;6.95;100.00
8069;BME280;4077;43.702;24.896;2022-12-10T06:17:57;98672.69;;;6.97;100.00
8069;BME280;4077;43.702;24.896;2022-12-10T06:20:24;98662.44;;;6.98;100.00
8069;BME280;4077;43.702;24.896;2022-12-10T06:22:49;98659.94;;;7.01;100.00
8069;BME280;4077;43.702;24.896;2022-12-10T06:25:15;98665.16;;;7.09;100.00
8069;BME280;4077;43.702;24.896;2022-12-10T06:27:41;98663.47;;;7.12;100.00
8069;BME280;4077;43.702;24.896;2022-12-10T06:30:07;98658.38;;;7.16;100.00
8069;BME280;4077;43.702;24.896;2022-12-10T06:32:32;98643.84;;;7.15;100.00
8069;BME280;4077;43.702;24.896;2022-12-10T06:34:58;98644.78;;;7.21;100.00
8069;BME280;4077;43.702;24.896;2022-12-10T06:37:23;98652.56;;;7.29;100.00
8069;BME280;4077;43.702;24.896;2022-12-10T06:39:51;98668.84;;;7.34;100.00
8069;BME280;4077;43.702;24.896;2022-12-10T06:42:17;98669.69;;;7.33;100.00
8069;BME280;4077;43.702;24.896;2022-12-10T06:44:43;98675.72;;;7.35;100.00
8069;BME280;4077;43.702;24.896;2022-12-10T06:47:08;98679.09;;;7.34;100.00
8069;BME280;4077;43.702;24.896;2022-12-10T06:49:33;98676.59;;;7.40;100.00
8069;BME280;4077;43.702;24.896;2022-12-10T06:51:59;98674.94;;;7.44;100.00
8069;BME280;4077;43.702;24.896;2022-12-10T06:54:25;98667.31;;;7.51;100.00
8069;BME280;4077;43.702;24.896;2022-12-10T06:56:50;98656.97;;;7.44;100.00
8069;BME280;4077;43.702;24.896;2022-12-10T06:59:15;98656.91;;;7.39;100.00
8069;BME280;4077;43.702;24.896;2022-12-10T07:01:41;98649.28;;;7.45;100.00
8069;BME280;4077;43.702;24.896;2022-12-10T07:04:08;98652.78;;;7.55;100.00
8069;BME280;4077;43.702;24.896;2022-12-10T07:06:33;98646.88;;;7.60;100.00
8069;BME280;4077;43.702;24.896;2022-12-10T07:08:59;98628.81;;;7.51;100.00
8069;BME280;4077;43.702;24.896;2022-12-10T07:11:25;98650.34;;;7.65;100.00
8069;BME280;4077;43.702;24.896;2022-12-10T07:13:51;98657.25;;;7.73;100.00
8069;BME280;4077;43.702;24.896;2022-12-10T07:16:20;98658.97;;;7.72;100.00
8069;BME280;4077;43.702;24.896;2022-12-10T07:18:47;98672.72;;;7.79;100.00
8069;BME280;4077;43.702;24.896;2022-12-10T07:21:18;98658.22;;;7.84;100.00
8069;BME280;4077;43.702;24.896;2022-12-10T07:23:44;98669.38;;;7.89;100.00
8069;BME280;4077;43.702;24.896;2022-12-10T07:26:10;98662.53;;;7.88;100.00
8069;BME280;4077;43.702;24.896;2022-12-10T07:28:35;98665.16;;;7.94;100.00
8069;BME280;4077;43.702;24.896;2022-12-10T07:31:05;98654.06;;;8.01;100.00
8069;BME280;4077;43.702;24.896;2022-12-10T07:33:31;98662.63;;;7.97;100.00
8069;BME280;4077;43.702;24.896;2022-12-10T07:35:56;98652.31;;;7.95;100.00
8069;BME280;4077;43.702;24.896;2022-12-10T07:38:25;98647.25;;;8.03;100.00
8069;BME280;4077;43.702;24.896;2022-12-10T07:40:51;98650.69;;;8.05;100.00
8069;BME280;4077;43.702;24.896;2022-12-10T07:43:17;98644.66;;;8.02;100.00
8069;BME280;4077;43.702;24.896;2022-12-10T07:45:43;98648.19;;;8.14;100.00
8069;BME280;4077;43.702;24.896;2022-12-10T07:48:09;98641.31;;;8.12;100.00
8069;BME280;4077;43.702;24.896;2022-12-10T07:50:34;98645.59;;;8.11;100.00
8069;BME280;4077;43.702;24.896;2022-12-10T07:53:00;98622.38;;;7.99;100.00
8069;BME280;4077;43.702;24.896;2022-12-10T07:55:25;98638.75;;;8.13;100.00
8069;BME280;4077;43.702;24.896;2022-12-10T07:57:51;98638.75;;;8.15;100.00
8069;BME280;4077;43.702;24.896;2022-12-10T08:00:16;98638.75;;;8.16;100.00
8069;BME280;4077;43.702;24.896;2022-12-10T08:02:42;98625.03;;;8.11;100.00
8069;BME280;4077;43.702;24.896;2022-12-10T08:05:08;98633.66;;;8.19;100.00
8069;BME280;4077;43.702;24.896;2022-12-10T08:07:33;98643.94;;;8.22;100.00
8069;BME280;4077;43.702;24.896;2022-12-10T08:09:59;98644.84;;;8.29;100.00
8069;BME280;4077;43.702;24.896;2022-12-10T08:12:25;98650.84;;;8.27;100.00
8069;BME280;4077;43.702;24.896;2022-12-10T08:14:50;98642.28;;;8.28;100.00
8069;BME280;4077;43.702;24.896;2022-12-10T08:17:15;98633.75;;;8.32;100.00
8069;BME280;4077;43.702;24.896;2022-12-10T08:19:41;98637.22;;;8.37;100.00
8069;BME280;4077;43.702;24.896;2022-12-10T08:22:06;98631.22;;;8.36;100.00
8069;BME280;4077;43.702;24.896;2022-12-10T08:24:32;98627.72;;;8.23;100.00
8069;BME280;4077;43.702;24.896;2022-12-10T08:26:57;98630.28;;;8.25;100.00
8069;BME280;4077;43.702;24.896;2022-12-10T08:29:23;98632.00;;;8.28;100.00
8069;BME280;4077;43.702;24.896;2022-12-10T08:31:48;98625.19;;;8.33;100.00
8069;BME280;4077;43.702;24.896;2022-12-10T08:34:15;98628.78;;;8.55;100.00
8069;BME280;4077;43.702;24.896;2022-12-10T08:36:42;98633.13;;;8.71;100.00
8069;BME280;4077;43.702;24.896;2022-12-10T08:39:08;98622.03;;;8.78;100.00
8069;BME280;4077;43.702;24.896;2022-12-10T08:41:35;98621.19;;;8.81;100.00
8069;BME280;4077;43.702;24.896;2022-12-10T08:44:01;98610.13;;;9.09;100.00
8069;BME280;4077;43.702;24.896;2022-12-10T08:46:26;98620.50;;;9.37;100.00
8069;BME280;4077;43.702;24.896;2022-12-10T08:48:52;98617.97;;;9.58;100.00
8069;BME280;4077;43.702;24.896;2022-12-10T08:51:19;98618.88;;;9.81;100.00
8069;BME280;4077;43.702;24.896;2022-12-10T08:53:44;98617.13;;;9.74;100.00
8069;BME280;4077;43.702;24.896;2022-12-10T08:56:10;98618.81;;;9.60;100.00
8069;BME280;4077;43.702;24.896;2022-12-10T08:58:37;98611.94;;;9.41;100.00
8069;BME280;4077;43.702;24.896;2022-12-10T09:01:08;98605.91;;;9.28;100.00
8069;BME280;4077;43.702;24.896;2022-12-10T09:03:34;98601.56;;;9.18;100.00
8069;BME280;4077;43.702;24.896;2022-12-10T09:06:17;98604.16;;;9.18;100.00
8069;BME280;4077;43.702;24.896;2022-12-10T09:08:43;98593.03;;;9.29;100.00
8069;BME280;4077;43.702;24.896;2022-12-10T09:11:13;98593.91;;;10.00;100.00
8069;BME280;4077;43.702;24.896;2022-12-10T09:13:38;98593.78;;;10.80;100.00
8069;BME280;4077;43.702;24.896;2022-12-10T09:16:04;98605.44;;;11.52;100.00
8069;BME280;4077;43.702;24.896;2022-12-10T09:18:30;98608.50;;;12.08;100.00
8069;BME280;4077;43.702;24.896;2022-12-10T09:20:55;98607.31;;;12.41;100.00
8069;BME280;4077;43.702;24.896;2022-12-10T09:23:21;98604.97;;;12.17;100.00
8069;BME280;4077;43.702;24.896;2022-12-10T09:25:46;98595.84;;;11.70;100.00
8069;BME280;4077;43.702;24.896;2022-12-10T09:28:12;98586.69;;;11.23;100.00
8069;BME280;4077;43.702;24.896;2022-12-10T09:30:37;98587.72;;;10.82;100.00
8069;BME280;4077;43.702;24.896;2022-12-10T09:33:03;98581.88;;;10.37;100.00
8069;BME280;4077;43.702;24.896;2022-12-10T09:35:29;98562.16;;;10.03;100.00
8069;BME280;4077;43.702;24.896;2022-12-10T09:37:54;98561.28;;;9.90;100.00
8069;BME280;4077;43.702;24.896;2022-12-10T09:40:29;98554.41;;;9.87;100.00
8069;BME280;4077;43.702;24.896;2022-12-10T09:48:16;98545.81;;;9.99;100.00
8069;BME280;4077;43.702;24.896;2022-12-10T09:53:21;98520.03;;;10.05;100.00
8069;BME280;4077;43.702;24.896;2022-12-10T09:55:47;98532.88;;;10.08;100.00
8069;BME280;4077;43.702;24.896;2022-12-10T09:58:18;98525.16;;;10.16;100.00
8069;BME280;4077;43.702;24.896;2022-12-10T10:00:48;98515.66;;;10.21;100.00
8069;BME280;4077;43.702;24.896;2022-12-10T10:03:15;98501.09;;;10.14;100.00
8069;BME280;4077;43.702;24.896;2022-12-10T10:05:50;98513.97;;;10.17;100.00
8069;BME280;4077;43.702;24.896;2022-12-10T10:08:33;98504.50;;;10.33;100.00
8069;BME280;4077;43.702;24.896;2022-12-10T10:11:00;98488.22;;;10.11;100.00
8069;BME280;4077;43.702;24.896;2022-12-10T10:18:52;98470.19;;;9.99;100.00
8069;BME280;4077;43.702;24.896;2022-12-10T10:21:35;98468.47;;;9.93;100.00
8069;BME280;4077;43.702;24.896;2022-12-10T10:24:02;98467.66;;;9.80;100.00
8069;BME280;4077;43.702;24.896;2022-12-10T10:26:28;98483.13;;;9.76;100.00
8069;BME280;4077;43.702;24.896;2022-12-10T10:29:01;98475.38;;;9.83;100.00
8069;BME280;4077;43.702;24.896;2022-12-10T10:31:29;98485.69;;;9.86;100.00
8069;BME280;4077;43.702;24.896;2022-12-10T10:34:02;98487.41;;;9.97;100.00
8069;BME280;4077;43.702;24.896;2022-12-10T10:36:31;98488.25;;;9.93;100.00
8069;BME280;4077;43.702;24.896;2022-12-10T10:38:57;98486.56;;;9.89;100.00
8069;BME280;4077;43.702;24.896;2022-12-10T10:41:36;98479.66;;;10.03;100.00
8069;BME280;4077;43.702;24.896;2022-12-10T10:44:05;98483.09;;;9.99;100.00
8069;BME280;4077;43.702;24.896;2022-12-10T10:46:37;98471.91;;;10.00;100.00
8069;BME280;4077;43.702;24.896;2022-12-10T10:49:27;98450.41;;;10.10;100.00
8069;BME280;4077;43.702;24.896;2022-12-10T10:51:58;98453.00;;;10.05;100.00
8069;BME280;4077;43.702;24.896;2022-12-10T10:54:37;98451.22;;;10.13;100.00
8069;BME280;4077;43.702;24.896;2022-12-10T10:57:10;98443.50;;;10.17;100.00
8069;BME280;4077;43.702;24.896;2022-12-10T10:59:37;98438.38;;;10.09;100.00
8069;BME280;4077;43.702;24.896;2022-12-10T11:04:54;98431.47;;;10.23;100.00
8069;BME280;4077;43.702;24.896;2022-12-10T11:09:45;98433.19;;;10.15;100.00
8069;BME280;4077;43.702;24.896;2022-12-10T11:12:36;98419.38;;;10.22;100.00
8069;BME280;4077;43.702;24.896;2022-12-10T11:17:53;98415.13;;;10.24;100.00
8069;BME280;4077;43.702;24.896;2022-12-10T11:20:22;98401.38;;;10.13;100.00
8069;BME280;4077;43.702;24.896;2022-12-10T11:22:54;98391.06;;;10.13;100.00
8069;BME280;4077;43.702;24.896;2022-12-10T11:31:12;98407.31;;;10.35;100.00
8069;BME280;4077;43.702;24.896;2022-12-10T11:33:48;98418.56;;;10.25;100.00
8069;BME280;4077;43.702;24.896;2022-12-10T11:39:16;98412.44;;;10.43;100.00
8069;BME280;4077;43.702;24.896;2022-12-10T11:41:55;98410.75;;;10.35;100.00
8069;BME280;4077;43.702;24.896;2022-12-10T11:44:41;98403.91;;;10.37;100.00
8069;BME280;4077;43.702;24.896;2022-12-10T11:50:24;98386.63;;;10.49;100.00
8069;BME280;4077;43.702;24.896;2022-12-10T11:59:29;98381.41;;;10.59;100.00
8069;BME280;4077;43.702;24.896;2022-12-10T12:13:08;98366.00;;;10.50;100.00
8069;BME280;4077;43.702;24.896;2022-12-10T12:18:13;98352.22;;;10.50;100.00
8069;BME280;4077;43.702;24.896;2022-12-10T12:20:45;98346.22;;;10.51;100.00
8069;BME280;4077;43.702;24.896;2022-12-10T12:23:24;98343.56;;;10.58;100.00
8069;BME280;4077;43.702;24.896;2022-12-10T12:26:13;98345.25;;;10.64;100.00
8069;BME280;4077;43.702;24.896;2022-12-10T12:28:47;98347.84;;;10.59;100.00
8069;BME280;4077;43.702;24.896;2022-12-10T12:31:18;98348.63;;;10.69;100.00
8069;BME280;4077;43.702;24.896;2022-12-10T12:33:50;98340.03;;;10.70;100.00
8069;BME280;4077;43.702;24.896;2022-12-10T12:36:24;98361.56;;;10.71;100.00
8069;BME280;4077;43.702;24.896;2022-12-10T12:41:48;98388.97;;;10.84;100.00
8069;BME280;4077;43.702;24.896;2022-12-10T12:44:28;98364.03;;;10.84;100.00
8069;BME280;4077;43.702;24.896;2022-12-10T12:47:04;98364.88;;;10.86;100.00
8069;BME280;4077;43.702;24.896;2022-12-10T12:49:39;98351.88;;;10.95;100.00
8069;BME280;4077;43.702;24.896;2022-12-10T12:52:27;98356.00;;;11.15;100.00
8069;BME280;4077;43.702;24.896;2022-12-10T12:55:01;98347.38;;;11.16;100.00
8069;BME280;4077;43.702;24.896;2022-12-10T12:57:39;98350.69;;;11.33;100.00
8069;BME280;4077;43.702;24.896;2022-12-10T13:00:15;98353.16;;;11.42;100.00
8069;BME280;4077;43.702;24.896;2022-12-10T13:03:07;98336.66;;;11.56;100.00
8069;BME280;4077;43.702;24.896;2022-12-10T13:05:42;98330.78;;;11.41;100.00
8069;BME280;4077;43.702;24.896;2022-12-10T13:08:23;98329.78;;;11.55;100.00
8069;BME280;4077;43.702;24.896;2022-12-10T13:10:57;98314.28;;;11.55;100.00
8069;BME280;4077;43.702;24.896;2022-12-10T13:13:34;98310.84;;;11.54;100.00
8069;BME280;4077;43.702;24.896;2022-12-10T13:19:29;98297.88;;;11.56;100.00
8069;BME280;4077;43.702;24.896;2022-12-10T13:22:06;98303.91;;;11.56;100.00
8069;BME280;4077;43.702;24.896;2022-12-10T13:29:51;98315.16;;;11.54;100.00
8069;BME280;4077;43.702;24.896;2022-12-10T13:43:18;98291.19;;;11.39;100.00
8069;BME280;4077;43.702;24.896;2022-12-10T13:48:56;98268.84;;;11.32;100.00
8069;BME280;4077;43.702;24.896;2022-12-10T13:52:47;98263.59;;;11.41;100.00
8069;BME280;4077;43.702;24.896;2022-12-10T13:54:55;98256.09;;;11.20;100.00
8069;BME280;4077;43.702;24.896;2022-12-10T14:02:55;98252.53;;;11.30;100.00
8069;BME280;4077;43.702;24.896;2022-12-10T14:08:14;98241.50;;;11.16;100.00
8069;BME280;4077;43.702;24.896;2022-12-10T14:10:42;98250.22;;;11.06;100.00
8069;BME280;4077;43.702;24.896;2022-12-10T14:13:11;98257.91;;;11.13;100.00
8069;BME280;4077;43.702;24.896;2022-12-10T14:15:38;98251.94;;;11.04;100.00
8069;BME280;4077;43.702;24.896;2022-12-10T14:18:13;98233.97;;;10.94;100.00
8069;BME280;4077;43.702;24.896;2022-12-10T14:20:43;98242.63;;;10.90;100.00
8069;BME280;4077;43.702;24.896;2022-12-10T14:23:30;98233.22;;;10.83;100.00
8069;BME280;4077;43.702;24.896;2022-12-10T14:26:13;98243.56;;;10.82;100.00
8069;BME280;4077;43.702;24.896;2022-12-10T14:29:00;98236.72;;;10.79;100.00
8069;BME280;4077;43.702;24.896;2022-12-10T14:31:36;98248.81;;;10.74;100.00
8069;BME280;4077;43.702;24.896;2022-12-10T14:34:07;98237.66;;;10.72;100.00
8069;BME280;4077;43.702;24.896;2022-12-10T14:36:37;98235.09;;;10.71;100.00
8069;BME280;4077;43.702;24.896;2022-12-10T14:39:14;98221.28;;;10.73;100.00
8069;BME280;4077;43.702;24.896;2022-12-10T14:41:40;98218.88;;;10.58;100.00
8069;BME280;4077;43.702;24.896;2022-12-10T14:44:06;98207.75;;;10.50;100.00
8069;BME280;4077;43.702;24.896;2022-12-10T14:46:33;98209.50;;;10.46;100.00
8069;BME280;4077;43.702;24.896;2022-12-10T14:48:59;98202.63;;;10.45;100.00
8069;BME280;4077;43.702;24.896;2022-12-10T14:51:30;98207.72;;;10.54;100.00
8069;BME280;4077;43.702;24.896;2022-12-10T14:53:56;98210.34;;;10.47;100.00
8069;BME280;4077;43.702;24.896;2022-12-10T14:56:26;98210.31;;;10.51;100.00
8069;BME280;4077;43.702;24.896;2022-12-10T14:59:15;98203.47;;;10.47;100.00
8069;BME280;4077;43.702;24.896;2022-12-10T15:01:47;98207.88;;;10.37;100.00
8069;BME280;4077;43.702;24.896;2022-12-10T15:04:16;98191.66;;;10.23;100.00
8069;BME280;4077;43.702;24.896;2022-12-10T15:06:42;98195.06;;;10.25;100.00
8069;BME280;4077;43.702;24.896;2022-12-10T15:09:25;98183.00;;;10.30;100.00